Time;durP1;ratioP1;P1;durP2;ratioP2;P2;SDS_P1;SDS_P2;PMS_P1;PMS_P2;Temp;Humidity;BMP_temperature;BMP_pressure;BME280_temperature;BME280_humidity;BME280_pressure;Samples;Min_cycle;Max_cycle;Signal;HPM_P1;HPM_P2
2021/09/19 00:04:56;;;;;;;0.00;0.00;;;;;;;8.99;94.80;102085.25;10455192;28;20020;-65
2021/09/19 00:09:56;;;;;;;0.00;0.00;;;;;;;8.98;95.56;102080.88;10492605;28;20020;-65
2021/09/19 00:14:57;;;;;;;0.10;0.10;;;;;;;8.98;95.60;102080.03;10492564;28;20036;-65
2021/09/19 00:19:57;;;;;;;0.10;0.10;;;;;;;8.97;95.83;102081.84;10491230;28;20020;-65
2021/09/19 00:24:57;;;;;;;0.00;0.00;;;;;;;9.03;96.98;102086.69;10457715;28;20370;-65
2021/09/19 00:29:58;;;;;;;0.00;0.00;;;;;;;9.13;97.02;102084.16;10449247;28;20021;-65
2021/09/19 00:34:58;;;;;;;0.10;0.10;;;;;;;9.28;96.60;102082.13;10449638;28;20315;-65
2021/09/19 00:39:58;;;;;;;0.10;0.10;;;;;;;9.37;96.74;102078.75;10453078;28;20757;-65
2021/09/19 00:45:11;;;;;;;0.00;0.00;;;;;;;9.48;96.24;102077.88;10448899;28;20021;-65
2021/09/19 00:50:15;;;;;;;0.00;0.00;;;;;;;9.57;96.26;102077.19;10452230;28;20272;-65
2021/09/19 00:55:17;;;;;;;0.00;0.00;;;;;;;9.62;96.66;102071.47;10458105;28;20216;-65
2021/09/19 01:00:23;;;;;;;0.10;0.10;;;;;;;9.66;97.07;102067.63;10456221;28;20012;-65
2021/09/19 01:05:24;;;;;;;0.00;0.00;;;;;;;9.69;96.60;102067.38;10456047;28;20016;-65
2021/09/19 01:10:25;;;;;;;0.10;0.10;;;;;;;9.71;96.46;102076.91;10464929;28;20477;-65
2021/09/19 01:15:26;;;;;;;0.10;0.10;;;;;;;9.76;96.77;102076.53;10451299;28;20087;-65
2021/09/19 01:20:26;;;;;;;0.00;0.00;;;;;;;9.82;96.75;102067.22;10451694;28;20036;-65
2021/09/19 01:25:29;;;;;;;0.00;0.00;;;;;;;9.89;96.49;102068.41;10447934;28;20017;-66
2021/09/19 01:30:30;;;;;;;0.00;0.00;;;;;;;9.98;96.25;102071.19;10451783;28;20497;-66
2021/09/19 01:35:31;;;;;;;0.00;0.00;;;;;;;10.07;96.36;102074.06;10448864;28;20017;-65
2021/09/19 01:40:32;;;;;;;0.00;0.00;;;;;;;10.08;96.95;102070.44;10447797;28;20412;-65
2021/09/19 01:45:32;;;;;;;0.10;0.10;;;;;;;10.12;96.53;102069.19;10451819;28;20440;-66
2021/09/19 01:50:33;;;;;;;0.10;0.10;;;;;;;10.16;96.64;102079.47;10456535;28;20331;-65
2021/09/19 01:55:34;;;;;;;0.05;0.05;;;;;;;10.22;96.66;102077.28;10446450;28;20048;-65
2021/09/19 02:00:34;;;;;;;0.10;0.10;;;;;;;10.25;96.47;102075.22;10455672;28;20745;-65
2021/09/19 02:05:34;;;;;;;0.10;0.10;;;;;;;10.29;96.88;102066.00;10454386;28;20507;-65
2021/09/19 02:10:35;;;;;;;0.10;0.10;;;;;;;10.34;97.13;102062.97;10451855;28;20040;-65
2021/09/19 02:15:35;;;;;;;0.00;0.00;;;;;;;10.38;96.86;102065.28;10445759;28;20094;-66
2021/09/19 02:20:35;;;;;;;0.10;0.10;;;;;;;10.41;97.18;102062.34;10469973;28;20266;-66
2021/09/19 02:25:36;;;;;;;0.08;0.08;;;;;;;10.44;96.92;102061.22;10487097;28;20028;-65
2021/09/19 02:30:36;;;;;;;0.10;0.10;;;;;;;10.47;96.70;102063.66;10487777;28;20021;-65
2021/09/19 02:35:37;;;;;;;0.00;0.00;;;;;;;10.48;97.00;102054.69;10487014;28;20365;-66
2021/09/19 02:40:38;;;;;;;0.10;0.10;;;;;;;10.48;96.70;102059.19;10476971;28;20277;-66
2021/09/19 02:45:38;;;;;;;0.10;0.10;;;;;;;10.48;96.67;102060.03;10447391;28;20013;-66
2021/09/19 02:50:39;;;;;;;0.00;0.00;;;;;;;10.46;96.48;102045.97;10454695;28;20017;-65
2021/09/19 02:55:40;;;;;;;0.00;0.00;;;;;;;10.43;96.43;102057.72;10474371;28;20283;-66
2021/09/19 03:00:40;;;;;;;0.10;0.10;;;;;;;10.41;96.35;102054.38;10486809;28;20032;-66
2021/09/19 03:05:40;;;;;;;0.00;0.00;;;;;;;10.41;96.32;102059.69;10479100;28;20069;-66
2021/09/19 03:10:41;;;;;;;0.10;0.10;;;;;;;10.43;96.15;102055.06;10454133;28;20055;-66
2021/09/19 03:15:41;;;;;;;0.10;0.10;;;;;;;10.45;96.58;102048.78;10454243;28;20334;-65
2021/09/19 03:20:42;;;;;;;0.10;0.10;;;;;;;10.49;96.34;102055.53;10453158;28;20025;-66
2021/09/19 03:25:42;;;;;;;0.10;0.10;;;;;;;10.51;96.63;102056.25;10474237;28;20020;-66
2021/09/19 03:30:42;;;;;;;0.00;0.00;;;;;;;10.52;96.74;102055.28;10462215;28;20017;-66
2021/09/19 03:35:43;;;;;;;0.10;0.10;;;;;;;10.57;96.67;102055.75;10458842;28;20039;-66
2021/09/19 03:40:43;;;;;;;0.10;0.10;;;;;;;10.59;96.72;102051.13;10452087;28;20017;-65
2021/09/19 03:45:43;;;;;;;0.00;0.00;;;;;;;10.63;96.43;102056.06;10451474;28;20330;-65
2021/09/19 03:50:44;;;;;;;0.10;0.10;;;;;;;10.62;96.53;102049.06;10484861;28;20054;-65
2021/09/19 03:55:45;;;;;;;0.10;0.10;;;;;;;10.69;96.59;102054.69;10465152;28;20047;-63
2021/09/19 04:00:45;;;;;;;0.10;0.10;;;;;;;10.70;96.41;102060.88;10461405;28;20457;-64
2021/09/19 04:05:46;;;;;;;0.00;0.00;;;;;;;10.73;95.07;102058.78;10458750;28;20009;-65
2021/09/19 04:10:46;;;;;;;0.10;0.10;;;;;;;10.77;94.53;102059.38;10464176;28;20024;-64
2021/09/19 04:15:46;;;;;;;0.00;0.00;;;;;;;10.81;93.78;102061.63;10481331;28;20103;-65
2021/09/19 04:20:47;;;;;;;0.10;0.10;;;;;;;10.85;94.06;102062.25;10453380;28;20048;-64
2021/09/19 04:25:47;;;;;;;0.00;0.00;;;;;;;10.82;94.64;102067.81;10453806;28;20418;-65
2021/09/19 04:30:47;;;;;;;0.00;0.00;;;;;;;10.79;93.19;102063.63;10477303;28;20020;-64
2021/09/19 04:35:48;;;;;;;0.10;0.10;;;;;;;10.83;92.06;102062.38;10485154;28;20019;-65
2021/09/19 04:40:48;;;;;;;0.10;0.10;;;;;;;10.87;93.79;102065.59;10491216;28;20484;-66
2021/09/19 04:45:48;;;;;;;0.10;0.10;;;;;;;10.86;91.83;102063.94;10457764;28;20016;-66
2021/09/19 04:50:49;;;;;;;0.08;0.08;;;;;;;10.90;91.75;102061.84;10465746;28;20107;-65
2021/09/19 04:55:49;;;;;;;0.10;0.10;;;;;;;10.92;91.91;102055.41;10452948;28;20090;-66
2021/09/19 05:00:49;;;;;;;0.10;0.10;;;;;;;10.90;93.20;102056.50;10449269;28;20052;-65
2021/09/19 05:05:50;;;;;;;0.10;0.10;;;;;;;10.83;92.21;102058.84;10448198;28;20082;-64
2021/09/19 05:10:50;;;;;;;0.10;0.10;;;;;;;10.87;92.07;102054.94;10448648;28;20939;-66
2021/09/19 05:15:50;;;;;;;0.08;0.08;;;;;;;10.88;92.34;102057.50;10451747;28;20129;-65
2021/09/19 05:20:52;;;;;;;0.10;0.10;;;;;;;10.90;93.02;102053.84;10481767;28;20028;-65
2021/09/19 05:25:53;;;;;;;0.10;0.10;;;;;;;10.87;94.17;102061.13;10463353;28;20045;-66
2021/09/19 05:30:54;;;;;;;0.10;0.10;;;;;;;10.88;94.31;102060.16;10454113;28;20023;-65
2021/09/19 05:35:54;;;;;;;0.10;0.10;;;;;;;10.91;93.97;102061.72;10447076;28;20020;-66
2021/09/19 05:40:55;;;;;;;0.10;0.10;;;;;;;10.95;94.71;102063.13;10456662;28;20503;-66
2021/09/19 05:45:55;;;;;;;0.10;0.10;;;;;;;10.97;94.78;102061.19;10489085;28;20013;-66
2021/09/19 05:50:55;;;;;;;0.10;0.10;;;;;;;10.98;94.12;102062.88;10478188;28;20151;-65
2021/09/19 05:55:56;;;;;;;0.10;0.10;;;;;;;11.04;94.55;102069.50;10466295;28;20020;-65
2021/09/19 06:00:56;;;;;;;0.00;0.00;;;;;;;11.11;94.22;102065.31;10466619;28;20040;-65
2021/09/19 06:05:56;;;;;;;0.10;0.10;;;;;;;11.18;93.36;102063.00;10447192;28;20031;-64
2021/09/19 06:10:57;;;;;;;0.10;0.10;;;;;;;11.27;93.77;102071.03;10447148;28;20029;-65
2021/09/19 06:15:57;;;;;;;0.10;0.10;;;;;;;11.33;93.63;102073.16;10453609;28;20025;-65
2021/09/19 06:20:58;;;;;;;0.10;0.10;;;;;;;11.41;92.17;102074.31;10459587;28;20375;-65
2021/09/19 06:25:59;;;;;;;0.00;0.00;;;;;;;11.50;91.83;102081.53;10446864;28;20036;-65
2021/09/19 06:31:00;;;;;;;0.00;0.00;;;;;;;11.60;91.88;102078.88;10464737;28;20118;-66
2021/09/19 06:36:03;;;;;;;0.10;0.10;;;;;;;11.65;89.80;102082.81;10466952;28;20028;-65
2021/09/19 06:41:03;;;;;;;0.00;0.00;;;;;;;11.73;91.17;102075.00;10453452;28;20013;-64
2021/09/19 06:46:04;;;;;;;0.10;0.10;;;;;;;11.85;90.60;102066.88;10460921;28;20393;-65
2021/09/19 06:51:04;;;;;;;0.10;0.10;;;;;;;11.92;88.11;102070.69;10457988;28;20025;-65
2021/09/19 06:56:05;;;;;;;0.10;0.10;;;;;;;12.00;88.14;102076.22;10452061;28;20021;-65
2021/09/19 07:01:08;;;;;;;0.10;0.10;;;;;;;12.09;85.07;102078.03;10453751;28;20031;-64
2021/09/19 07:06:08;;;;;;;0.10;0.10;;;;;;;12.17;86.80;102072.03;10463351;28;20862;-65
2021/09/19 07:11:10;;;;;;;0.10;0.10;;;;;;;12.24;86.12;102067.78;10468253;28;20044;-66
2021/09/19 07:16:10;;;;;;;0.10;0.10;;;;;;;12.30;85.08;102066.38;10474278;28;20063;-65
2021/09/19 07:21:10;;;;;;;0.10;0.10;;;;;;;12.34;86.39;102067.81;10458217;28;20455;-65
2021/09/19 07:26:11;;;;;;;0.10;0.10;;;;;;;12.36;83.51;102068.50;10453788;28;20021;-65
2021/09/19 07:31:11;;;;;;;0.10;0.10;;;;;;;12.46;78.01;102056.84;10452018;28;20027;-64
2021/09/19 07:36:15;;;;;;;0.10;0.10;;;;;;;12.53;80.61;102066.94;10490842;28;20360;-66
2021/09/19 07:41:16;;;;;;;0.10;0.10;;;;;;;12.61;80.29;102073.28;10492670;28;20046;-66
2021/09/19 07:46:17;;;;;;;0.10;0.10;;;;;;;12.68;78.09;102076.22;10490353;28;20027;-64
2021/09/19 07:51:19;;;;;;;0.10;0.10;;;;;;;12.77;76.74;102075.38;10493907;28;20097;-65
2021/09/19 07:56:21;;;;;;;0.10;0.10;;;;;;;12.93;77.38;102077.44;10492017;28;20036;-65
2021/09/19 08:01:21;;;;;;;0.10;0.10;;;;;;;13.03;72.61;102086.31;10493074;28;20039;-66
2021/09/19 08:06:22;;;;;;;0.00;0.00;;;;;;;13.14;73.61;102082.59;10493354;28;20021;-65
2021/09/19 08:11:22;;;;;;;0.10;0.10;;;;;;;13.27;72.95;102082.34;10492162;28;20085;-66
2021/09/19 08:16:23;;;;;;;0.10;0.10;;;;;;;13.39;70.74;102083.00;10492975;28;20491;-65
2021/09/19 08:21:23;;;;;;;0.10;0.10;;;;;;;13.51;70.38;102090.69;10492067;28;20481;-66
2021/09/19 08:26:23;;;;;;;0.10;0.10;;;;;;;13.75;73.70;102087.44;10492761;28;20267;-65
2021/09/19 08:31:24;;;;;;;0.10;0.10;;;;;;;14.01;71.32;102084.91;10493302;28;20350;-66
2021/09/19 08:36:25;;;;;;;0.10;0.10;;;;;;;14.13;67.53;102096.25;10491669;28;20024;-66
2021/09/19 08:41:25;;;;;;;0.10;0.10;;;;;;;14.26;70.29;102098.56;10492866;28;20392;-65
2021/09/19 08:46:26;;;;;;;0.10;0.10;;;;;;;14.21;69.94;102095.50;10491730;28;20021;-65
2021/09/19 08:51:26;;;;;;;0.10;0.10;;;;;;;14.23;71.18;102097.03;10492039;28;20028;-65
2021/09/19 08:56:27;;;;;;;0.00;0.00;;;;;;;14.28;70.36;102099.22;10491713;28;20063;-66
2021/09/19 09:01:27;;;;;;;0.10;0.10;;;;;;;14.38;71.45;102086.63;10490255;28;20267;-66
2021/09/19 09:06:27;;;;;;;0.10;0.10;;;;;;;14.37;64.09;102093.00;10490098;28;20350;-65
2021/09/19 09:11:28;;;;;;;0.10;0.10;;;;;;;14.53;65.94;102096.84;10490596;28;20489;-65
2021/09/19 09:16:29;;;;;;;0.10;0.10;;;;;;;14.63;66.91;102103.81;10490526;28;20029;-65
2021/09/19 09:21:30;;;;;;;0.00;0.00;;;;;;;14.66;66.74;102103.50;10490614;28;20263;-65
2021/09/19 09:26:37;;;;;;;0.10;0.10;;;;;;;14.71;64.15;102097.66;10490041;28;20167;-65
2021/09/19 09:31:49;;;;;;;0.10;0.10;;;;;;;14.77;68.34;102107.75;10491564;28;20017;-67
2021/09/19 09:36:55;;;;;;;0.10;0.10;;;;;;;14.81;71.66;102106.47;10489846;28;20028;-67
2021/09/19 09:42:08;;;;;;;0.10;0.10;;;;;;;14.84;70.88;102106.16;10488994;28;20024;-69
2021/09/19 09:47:20;;;;;;;0.10;0.10;;;;;;;14.68;69.20;102112.22;10489852;28;20048;-70
2021/09/19 09:52:23;;;;;;;0.10;0.10;;;;;;;14.84;73.61;102106.16;10489647;28;20024;-69
2021/09/19 09:57:35;;;;;;;0.05;0.05;;;;;;;15.08;72.54;102091.22;10489370;28;20032;-68
2021/09/19 10:02:39;;;;;;;0.10;0.10;;;;;;;14.96;69.68;102093.31;10489672;28;20107;-68
2021/09/19 10:07:42;;;;;;;0.10;0.10;;;;;;;14.90;68.52;102092.09;10492192;28;20097;-68
2021/09/19 10:12:43;;;;;;;0.00;0.00;;;;;;;15.00;68.68;102088.47;10531419;28;20119;-68
2021/09/19 10:17:44;;;;;;;0.10;0.10;;;;;;;15.17;70.42;102090.25;10531639;28;20081;-68
2021/09/19 10:23:05;;;;;;;0.10;0.10;;;;;;;15.26;69.09;102093.84;10535541;28;20118;-68
2021/09/19 10:28:24;;;;;;;0.10;0.10;;;;;;;15.27;66.80;102085.66;10520977;28;20093;-68
2021/09/19 10:33:37;;;;;;;0.00;0.00;;;;;;;15.27;67.25;102093.69;10521151;28;20050;-68
2021/09/19 10:38:40;;;;;;;0.08;0.08;;;;;;;15.26;67.68;102094.69;10520920;28;20477;-67
2021/09/19 10:43:55;;;;;;;0.10;0.10;;;;;;;15.15;65.76;102089.56;10539008;28;20028;-68
2021/09/19 10:49:18;;;;;;;0.10;0.10;;;;;;;15.11;68.51;102094.41;10503686;28;20051;-68
2021/09/19 10:54:48;;;;;;;0.10;0.10;;;;;;;15.04;66.40;102090.69;10497042;28;20393;-67
2021/09/19 11:00:07;;;;;;;0.10;0.10;;;;;;;15.11;65.74;102090.91;10493613;28;20020;-68
2021/09/19 11:05:26;;;;;;;0.10;0.10;;;;;;;15.16;64.01;102084.06;10536675;28;20364;-68
2021/09/19 11:10:26;;;;;;;0.10;0.10;;;;;;;15.21;65.80;102090.78;10489308;28;20043;-68
2021/09/19 11:15:26;;;;;;;0.10;0.10;;;;;;;15.27;64.87;102074.91;10494339;28;20039;-68
2021/09/19 11:20:31;;;;;;;0.10;0.10;;;;;;;15.38;66.58;102071.91;10490760;28;20024;-68
2021/09/19 11:25:32;;;;;;;0.10;0.10;;;;;;;15.49;66.46;102076.16;10495530;28;20028;-69
2021/09/19 11:30:32;;;;;;;0.10;0.10;;;;;;;15.56;65.18;102068.31;10484422;28;20036;-68
2021/09/19 11:35:33;;;;;;;0.10;0.10;;;;;;;15.51;63.49;102065.28;10493199;28;20468;-68
2021/09/19 11:40:33;;;;;;;0.10;0.10;;;;;;;15.57;62.71;102065.47;10495089;28;20035;-69
2021/09/19 11:45:33;;;;;;;0.10;0.10;;;;;;;15.49;63.23;102073.50;10494635;28;20063;-69
2021/09/19 11:50:37;;;;;;;0.00;0.00;;;;;;;15.62;65.70;102067.69;10493786;28;20035;-68
2021/09/19 11:55:46;;;;;;;0.10;0.10;;;;;;;15.58;66.16;102064.47;10493747;28;20031;-69
2021/09/19 12:00:58;;;;;;;0.10;0.10;;;;;;;15.62;68.70;102063.16;10494535;28;20217;-69
2021/09/19 12:06:02;;;;;;;0.10;0.10;;;;;;;15.74;64.47;102055.66;10493239;28;20166;-68
2021/09/19 12:11:04;;;;;;;0.10;0.10;;;;;;;15.68;62.53;102048.25;10524469;28;20078;-68
2021/09/19 12:16:10;;;;;;;0.10;0.10;;;;;;;15.69;64.72;102058.00;10520685;28;20023;-68
2021/09/19 12:21:21;;;;;;;0.10;0.10;;;;;;;15.75;62.52;102038.53;10523304;28;20039;-68
2021/09/19 12:26:26;;;;;;;0.10;0.10;;;;;;;15.82;65.45;102047.63;10467087;28;20101;-69
2021/09/19 12:31:35;;;;;;;0.10;0.10;;;;;;;15.80;66.37;102044.25;10492816;28;20394;-69
2021/09/19 12:36:46;;;;;;;0.00;0.00;;;;;;;15.62;66.29;102044.34;10492396;28;20021;-69
2021/09/19 12:41:53;;;;;;;0.10;0.10;;;;;;;15.61;63.55;102031.91;10491637;28;20042;-68
2021/09/19 12:46:59;;;;;;;0.10;0.10;;;;;;;15.62;64.74;102027.41;10491316;28;20103;-69
2021/09/19 12:52:06;;;;;;;0.10;0.10;;;;;;;15.48;65.06;102033.38;10473253;28;20016;-69
2021/09/19 12:57:06;;;;;;;0.10;0.10;;;;;;;15.28;67.78;102030.94;10502487;28;20028;-68
2021/09/19 13:02:07;;;;;;;0.00;0.00;;;;;;;15.06;68.84;102023.44;10472597;28;20524;-68
2021/09/19 13:07:08;;;;;;;0.10;0.10;;;;;;;14.94;72.06;102030.94;10490609;28;20211;-69
2021/09/19 13:12:09;;;;;;;0.10;0.10;;;;;;;14.79;69.86;102025.31;10490662;28;20032;-68
2021/09/19 13:17:10;;;;;;;0.10;0.10;;;;;;;14.68;68.84;102023.72;10484158;28;20058;-68
2021/09/19 13:22:10;;;;;;;0.10;0.10;;;;;;;14.63;71.02;102011.78;10473105;28;20035;-68
2021/09/19 13:27:11;;;;;;;0.10;0.10;;;;;;;14.64;73.58;102010.78;10469260;28;20021;-68
2021/09/19 13:32:11;;;;;;;0.10;0.10;;;;;;;14.71;73.04;102009.16;10472522;28;20104;-69
2021/09/19 13:37:11;;;;;;;0.10;0.10;;;;;;;14.76;71.49;102000.66;10467671;28;20037;-68
2021/09/19 13:42:12;;;;;;;0.10;0.10;;;;;;;14.92;69.57;101996.22;10479924;28;20028;-70
2021/09/19 13:47:12;;;;;;;0.10;0.10;;;;;;;15.29;67.05;101992.34;10467993;28;20021;-66
2021/09/19 13:52:13;;;;;;;0.10;0.10;;;;;;;15.40;67.60;102000.13;10447991;28;20426;-67
2021/09/19 13:57:13;;;;;;;0.10;0.10;;;;;;;15.20;68.65;102013.97;10446474;28;20505;-66
2021/09/19 14:02:13;;;;;;;0.00;0.00;;;;;;;14.98;68.31;102002.78;10467777;28;20020;-66
2021/09/19 14:07:14;;;;;;;0.10;0.10;;;;;;;14.78;70.54;102004.84;10444331;28;20016;-65
2021/09/19 14:12:14;;;;;;;0.00;0.00;;;;;;;14.63;72.69;102011.78;10457498;28;20028;-67
2021/09/19 14:17:15;;;;;;;0.10;0.10;;;;;;;14.44;74.73;102008.25;10486875;28;20020;-68
2021/09/19 14:22:16;;;;;;;0.10;0.10;;;;;;;14.22;73.39;102009.59;10484481;28;20024;-66
2021/09/19 14:27:17;;;;;;;0.10;0.10;;;;;;;14.04;74.90;102009.59;10486908;28;20082;-66
2021/09/19 14:32:17;;;;;;;0.10;0.10;;;;;;;13.92;74.29;102008.13;10484669;28;20036;-66
2021/09/19 14:37:17;;;;;;;0.10;0.10;;;;;;;13.89;75.57;102011.13;10485499;28;20127;-66
2021/09/19 14:42:18;;;;;;;0.10;0.10;;;;;;;13.87;77.59;102010.41;10488835;28;20055;-67
2021/09/19 14:47:18;;;;;;;0.10;0.10;;;;;;;13.87;77.25;102006.91;10486457;28;20042;-67
2021/09/19 14:52:18;;;;;;;0.10;0.10;;;;;;;13.88;76.55;102005.94;10488420;28;20116;-67
2021/09/19 14:57:19;;;;;;;0.10;0.10;;;;;;;13.88;75.13;102003.25;10486339;28;20635;-65
2021/09/19 15:02:19;;;;;;;0.10;0.10;;;;;;;13.88;75.78;102011.28;10486815;28;20385;-66
2021/09/19 15:07:19;;;;;;;0.10;0.10;;;;;;;13.88;75.32;102013.97;10491308;28;20429;-65
2021/09/19 15:12:20;;;;;;;0.10;0.10;;;;;;;13.86;77.57;102007.91;10495680;28;20040;-66
2021/09/19 15:17:20;;;;;;;0.10;0.10;;;;;;;13.82;78.18;102007.38;10495206;28;20020;-65
2021/09/19 15:22:21;;;;;;;0.10;0.10;;;;;;;13.77;78.42;102004.31;10495791;28;20033;-65
2021/09/19 15:27:21;;;;;;;0.00;0.00;;;;;;;13.71;77.48;102005.75;10494647;28;20047;-65
2021/09/19 15:32:21;;;;;;;0.10;0.10;;;;;;;13.68;77.89;102013.25;10494756;28;20477;-66
2021/09/19 15:37:22;;;;;;;0.10;0.10;;;;;;;13.64;79.51;102012.69;10494887;28;20506;-65
2021/09/19 15:42:22;;;;;;;0.10;0.10;;;;;;;13.59;77.82;102017.66;10494581;28;20099;-66
2021/09/19 15:47:22;;;;;;;0.10;0.10;;;;;;;13.57;79.34;102012.44;10477886;28;20251;-64
2021/09/19 15:52:23;;;;;;;0.10;0.10;;;;;;;13.54;79.06;102019.94;10456898;28;20090;-65
2021/09/19 15:57:23;;;;;;;0.10;0.10;;;;;;;13.57;79.17;102011.63;10463018;28;20024;-65
2021/09/19 16:02:24;;;;;;;0.03;0.03;;;;;;;13.48;79.91;102015.19;10468545;28;20231;-66
2021/09/19 16:07:24;;;;;;;0.10;0.10;;;;;;;13.45;81.88;102016.31;10475533;28;20041;-66
2021/09/19 16:12:24;;;;;;;0.10;0.10;;;;;;;13.41;82.25;102014.94;10470837;28;20083;-66
2021/09/19 16:17:25;;;;;;;0.10;0.10;;;;;;;13.38;80.68;102012.56;10458244;28;20352;-66
2021/09/19 16:22:25;;;;;;;0.10;0.10;;;;;;;13.36;80.92;102011.88;10466784;28;20020;-65
2021/09/19 16:27:26;;;;;;;0.10;0.10;;;;;;;13.30;80.23;102001.75;10450210;28;20044;-66
2021/09/19 16:32:26;;;;;;;0.10;0.10;;;;;;;13.27;81.15;101997.56;10457118;28;20542;-66
2021/09/19 16:37:27;;;;;;;0.10;0.10;;;;;;;13.24;80.92;102003.16;10484598;28;20062;-66
2021/09/19 16:42:27;;;;;;;0.10;0.10;;;;;;;13.22;82.19;102001.63;10490086;28;20024;-67
2021/09/19 16:47:27;;;;;;;0.10;0.10;;;;;;;13.14;81.33;102011.22;10486054;28;20826;-68
2021/09/19 16:52:28;;;;;;;0.10;0.10;;;;;;;13.10;81.17;102017.84;10449042;28;20448;-67
2021/09/19 16:57:28;;;;;;;0.10;0.10;;;;;;;13.07;81.54;102014.63;10448594;28;20033;-67
2021/09/19 17:02:29;;;;;;;0.10;0.10;;;;;;;13.01;81.40;102005.38;10449385;28;20264;-67
2021/09/19 17:07:29;;;;;;;0.10;0.10;;;;;;;12.97;82.11;102017.31;10448081;28;20021;-67
2021/09/19 17:12:29;;;;;;;0.10;0.10;;;;;;;12.87;82.74;102014.69;10468813;28;20099;-67
2021/09/19 17:17:30;;;;;;;0.10;0.10;;;;;;;12.81;83.57;102025.13;10473002;28;20728;-67
2021/09/19 17:22:30;;;;;;;0.10;0.10;;;;;;;12.73;83.94;102025.84;10448006;28;20041;-67
2021/09/19 17:27:31;;;;;;;0.00;0.00;;;;;;;12.69;84.79;102019.13;10479704;28;20394;-67
2021/09/19 17:32:31;;;;;;;0.10;0.10;;;;;;;12.65;84.78;102015.88;10489003;28;20424;-66
2021/09/19 17:37:31;;;;;;;0.10;0.10;;;;;;;12.62;84.65;102024.19;10472798;28;20362;-66
2021/09/19 17:42:32;;;;;;;0.00;0.00;;;;;;;12.61;84.89;102025.16;10453469;28;20035;-67
2021/09/19 17:47:33;;;;;;;0.10;0.10;;;;;;;12.57;85.65;102023.78;10452887;28;20148;-66
2021/09/19 17:52:33;;;;;;;0.10;0.10;;;;;;;12.55;85.53;102032.91;10470348;28;20028;-64
2021/09/19 17:57:33;;;;;;;0.10;0.10;;;;;;;12.53;86.09;102038.41;10451857;28;20400;-67
2021/09/19 18:02:33;;;;;;;0.10;0.10;;;;;;;12.48;88.15;102048.69;10445776;28;20031;-66
2021/09/19 18:07:34;;;;;;;0.10;0.10;;;;;;;12.45;89.04;102054.31;10473394;28;20017;-66
2021/09/19 18:12:34;;;;;;;0.07;0.07;;;;;;;12.42;89.02;102067.94;10466575;28;20025;-66
2021/09/19 18:17:34;;;;;;;0.10;0.10;;;;;;;12.41;89.25;102068.94;10485789;28;20021;-66
2021/09/19 18:22:35;;;;;;;0.10;0.10;;;;;;;12.39;88.63;102073.56;10477249;28;20275;-67
2021/09/19 18:27:36;;;;;;;0.10;0.10;;;;;;;12.38;87.50;102077.22;10477695;28;20259;-66
2021/09/19 18:32:36;;;;;;;0.00;0.00;;;;;;;12.37;88.26;102081.72;10451752;28;20021;-67
2021/09/19 18:37:37;;;;;;;0.10;0.10;;;;;;;12.35;88.39;102088.19;10446185;28;20060;-66
2021/09/19 18:42:38;;;;;;;0.10;0.10;;;;;;;12.34;87.25;102089.19;10467697;28;20481;-67
2021/09/19 18:47:39;;;;;;;0.10;0.10;;;;;;;12.37;87.17;102091.59;10484623;28;20058;-66
2021/09/19 18:52:39;;;;;;;0.10;0.10;;;;;;;12.34;86.29;102091.88;10489508;28;20128;-67
2021/09/19 18:57:40;;;;;;;0.10;0.10;;;;;;;12.35;88.05;102090.88;10474032;28;20039;-67
2021/09/19 19:02:40;;;;;;;0.10;0.10;;;;;;;12.28;87.36;102103.09;10489029;28;20066;-66
2021/09/19 19:07:41;;;;;;;0.10;0.10;;;;;;;12.24;87.26;102106.03;10452958;28;20071;-67
2021/09/19 19:12:41;;;;;;;0.10;0.10;;;;;;;12.28;85.86;102109.28;10460185;28;20048;-66
2021/09/19 19:17:41;;;;;;;0.10;0.10;;;;;;;12.28;86.34;102111.97;10479973;28;20074;-66
2021/09/19 19:22:42;;;;;;;0.10;0.10;;;;;;;12.26;85.89;102126.44;10472629;28;20401;-67
2021/09/19 19:27:43;;;;;;;0.10;0.10;;;;;;;12.27;85.15;102128.97;10478563;28;20025;-67
2021/09/19 19:32:43;;;;;;;0.10;0.10;;;;;;;12.23;85.53;102125.72;10482670;28;20024;-68
2021/09/19 19:37:44;;;;;;;0.00;0.00;;;;;;;12.19;86.21;102132.34;10454600;28;20060;-66
2021/09/19 19:42:48;;;;;;;0.10;0.10;;;;;;;12.14;87.05;102139.06;10452399;28;20021;-66
2021/09/19 19:47:48;;;;;;;0.08;0.08;;;;;;;12.10;86.24;102143.84;10451591;28;20016;-67
2021/09/19 19:52:48;;;;;;;0.10;0.10;;;;;;;12.08;86.35;102152.97;10449868;28;20059;-67
2021/09/19 19:57:49;;;;;;;0.10;0.10;;;;;;;12.04;86.50;102151.53;10450665;28;20032;-66
2021/09/19 20:02:49;;;;;;;0.10;0.10;;;;;;;11.99;86.35;102151.97;10450998;28;20028;-66
2021/09/19 20:07:50;;;;;;;0.00;0.00;;;;;;;11.95;86.46;102140.69;10450557;28;20025;-67
2021/09/19 20:12:50;;;;;;;0.10;0.10;;;;;;;11.90;87.06;102153.63;10462163;28;20365;-66
2021/09/19 20:17:50;;;;;;;0.10;0.10;;;;;;;11.89;87.29;102151.06;10450733;28;20029;-66
2021/09/19 20:22:53;;;;;;;0.10;0.10;;;;;;;11.90;86.92;102158.13;10450051;28;20043;-66
2021/09/19 20:27:54;;;;;;;0.10;0.10;;;;;;;11.86;87.22;102157.53;10450228;28;20024;-67
2021/09/19 20:32:56;;;;;;;0.00;0.00;;;;;;;11.81;87.14;102161.53;10454419;28;20110;-67
2021/09/19 20:37:56;;;;;;;0.10;0.10;;;;;;;11.79;87.67;102161.69;10449184;28;20033;-67
2021/09/19 20:42:57;;;;;;;0.10;0.10;;;;;;;11.75;87.49;102157.59;10463556;28;20050;-67
2021/09/19 20:47:57;;;;;;;0.10;0.10;;;;;;;11.74;87.41;102162.09;10490414;28;20048;-67
2021/09/19 20:52:57;;;;;;;0.10;0.10;;;;;;;11.72;87.38;102158.72;10458766;28;20055;-67
2021/09/19 20:57:58;;;;;;;0.10;0.10;;;;;;;11.71;86.64;102165.03;10456981;28;20035;-67
2021/09/19 21:02:58;;;;;;;0.10;0.10;;;;;;;11.75;85.53;102174.47;10488728;28;20031;-66
2021/09/19 21:07:58;;;;;;;0.10;0.10;;;;;;;11.77;85.27;102172.50;10488088;28;20024;-67
2021/09/19 21:12:59;;;;;;;0.10;0.10;;;;;;;11.73;86.63;102172.91;10487776;28;20020;-67
2021/09/19 21:17:59;;;;;;;0.10;0.10;;;;;;;11.69;86.62;102180.34;10459141;28;20492;-67
2021/09/19 21:22:59;;;;;;;0.10;0.10;;;;;;;11.65;86.63;102178.91;10450564;28;20433;-67
2021/09/19 21:28:00;;;;;;;0.10;0.10;;;;;;;11.60;86.98;102186.47;10446876;28;20385;-66
2021/09/19 21:33:00;;;;;;;0.10;0.10;;;;;;;11.55;88.22;102178.03;10447027;28;20619;-67
2021/09/19 21:38:01;;;;;;;0.10;0.10;;;;;;;11.50;87.93;102182.91;10446117;28;20375;-67
2021/09/19 21:43:01;;;;;;;0.10;0.10;;;;;;;11.49;87.43;102187.41;10470211;28;20465;-66
2021/09/19 21:48:02;;;;;;;0.10;0.10;;;;;;;11.49;87.25;102192.75;10487596;28;20016;-66
2021/09/19 21:53:02;;;;;;;0.10;0.10;;;;;;;11.48;88.02;102193.69;10463266;28;20335;-66
2021/09/19 21:58:02;;;;;;;0.10;0.10;;;;;;;11.45;88.13;102198.47;10446572;28;20025;-66
2021/09/19 22:03:04;;;;;;;0.10;0.10;;;;;;;11.38;89.15;102203.47;10446695;28;20024;-66
2021/09/19 22:08:07;;;;;;;0.00;0.00;;;;;;;11.31;88.91;102203.16;10446283;28;20040;-68
2021/09/19 22:13:12;;;;;;;0.10;0.10;;;;;;;11.27;88.22;102198.22;10446617;28;20120;-66
2021/09/19 22:18:12;;;;;;;0.10;0.10;;;;;;;11.26;88.01;102200.03;10470140;28;20103;-65
2021/09/19 22:23:13;;;;;;;0.10;0.10;;;;;;;11.26;87.70;102202.72;10483037;28;20048;-66
2021/09/19 22:28:13;;;;;;;0.10;0.10;;;;;;;11.24;87.75;102201.97;10445752;28;20086;-66
2021/09/19 22:33:15;;;;;;;0.10;0.10;;;;;;;11.22;87.92;102203.94;10445253;28;20048;-66
2021/09/19 22:38:15;;;;;;;0.10;0.10;;;;;;;11.20;89.31;102205.03;10446451;28;20535;-67
2021/09/19 22:43:15;;;;;;;0.10;0.10;;;;;;;11.18;89.29;102210.50;10445979;28;20108;-66
2021/09/19 22:48:16;;;;;;;0.00;0.00;;;;;;;11.18;89.18;102215.84;10450839;28;20122;-65
2021/09/19 22:53:16;;;;;;;0.10;0.10;;;;;;;11.19;88.62;102217.53;10446216;28;20043;-66
2021/09/19 22:58:16;;;;;;;0.00;0.00;;;;;;;11.17;89.11;102215.97;10449973;28;20544;-64
2021/09/19 23:03:17;;;;;;;0.10;0.10;;;;;;;11.16;89.32;102224.94;10445743;28;20142;-66
2021/09/19 23:08:17;;;;;;;0.10;0.10;;;;;;;11.14;89.75;102225.09;10444880;28;20111;-66